createdAt,value
2022-08-31T00:00:31.247Z,15.13
2022-08-31T00:03:16.695Z,15.12
2022-08-31T00:05:44.652Z,15.06
2022-08-31T00:08:12.534Z,15.00
2022-08-31T00:10:46.204Z,14.98
2022-08-31T00:13:14.825Z,14.95
2022-08-31T00:15:43.422Z,14.84
2022-08-31T00:18:11.874Z,14.81
2022-08-31T00:20:40.140Z,14.87
2022-08-31T00:23:10.524Z,14.88
2022-08-31T00:25:42.489Z,14.80
2022-08-31T00:28:11.570Z,14.77
2022-08-31T00:30:40.251Z,14.78
2022-08-31T00:33:08.411Z,14.69
2022-08-31T00:35:37.918Z,14.71
2022-08-31T00:38:07.229Z,14.66
2022-08-31T00:40:44.387Z,14.66
2022-08-31T00:43:31.871Z,14.63
2022-08-31T00:45:59.938Z,14.64
2022-08-31T00:48:28.306Z,14.63
2022-08-31T00:50:56.849Z,14.63
2022-08-31T00:53:25.371Z,14.62
2022-08-31T00:55:53.380Z,14.57
2022-08-31T00:58:22.890Z,14.55
2022-08-31T01:00:52.022Z,14.54
2022-08-31T01:03:21.612Z,14.59
2022-08-31T01:05:50.093Z,14.63
2022-08-31T01:08:18.138Z,14.53
2022-08-31T01:10:54.959Z,14.52
2022-08-31T01:13:24.378Z,14.56
2022-08-31T01:15:59.314Z,14.60
2022-08-31T01:18:27.507Z,14.53
2022-08-31T01:21:01.405Z,14.49
2022-08-31T01:23:34.691Z,14.45
2022-08-31T01:26:05.730Z,14.37
2022-08-31T01:28:33.697Z,14.36
2022-08-31T01:31:04.446Z,14.34
2022-08-31T01:33:33.742Z,14.38
2022-08-31T01:36:02.131Z,14.21
2022-08-31T01:38:33.092Z,14.24
2022-08-31T01:41:02.448Z,14.34
2022-08-31T01:43:33.932Z,14.37
2022-08-31T01:46:02.729Z,14.37
2022-08-31T01:48:33.877Z,14.20
2022-08-31T01:51:02.600Z,14.23
2022-08-31T01:53:32.403Z,14.28
2022-08-31T01:56:00.478Z,14.28
2022-08-31T01:58:28.371Z,14.31
2022-08-31T02:00:56.386Z,14.22
2022-08-31T02:03:24.481Z,14.28
2022-08-31T02:08:20.018Z,14.31
2022-08-31T02:10:49.534Z,14.27
2022-08-31T02:13:17.635Z,14.11
2022-08-31T02:15:45.517Z,14.18
2022-08-31T02:18:13.578Z,14.22
2022-08-31T02:20:41.585Z,14.22
2022-08-31T02:23:09.460Z,14.22
2022-08-31T02:25:37.356Z,14.28
2022-08-31T02:28:06.997Z,14.26
2022-08-31T02:30:34.945Z,14.26
2022-08-31T02:33:02.961Z,14.23
2022-08-31T02:35:30.916Z,14.21
2022-08-31T02:37:58.807Z,14.18
2022-08-31T02:40:27.505Z,14.17
2022-08-31T02:42:55.460Z,14.18
2022-08-31T02:45:25.021Z,14.15
2022-08-31T02:47:53.047Z,14.18
2022-08-31T02:50:21.021Z,14.13
2022-08-31T02:52:49.932Z,14.10
2022-08-31T02:55:18.271Z,14.11
2022-08-31T02:57:50.179Z,14.08
2022-08-31T03:00:19.165Z,14.07
2022-08-31T03:02:48.613Z,14.08
2022-08-31T03:05:16.551Z,14.03
2022-08-31T03:07:45.517Z,14.00
2022-08-31T03:10:15.260Z,13.97
2022-08-31T03:12:43.395Z,13.92
2022-08-31T03:15:12.755Z,13.93
2022-08-31T03:17:40.937Z,13.99
2022-08-31T03:20:11.856Z,14.01
2022-08-31T03:22:40.326Z,13.95
2022-08-31T03:25:13.937Z,13.96
2022-08-31T03:27:42.149Z,13.95
2022-08-31T03:30:13.633Z,13.94
2022-08-31T03:32:42.123Z,14.05
2022-08-31T03:35:11.398Z,14.02
2022-08-31T03:37:39.240Z,14.06
2022-08-31T03:40:08.619Z,14.08
2022-08-31T03:42:36.654Z,14.07
2022-08-31T03:45:05.051Z,14.13
2022-08-31T03:47:33.028Z,14.13
2022-08-31T03:50:01.942Z,14.13
2022-08-31T03:52:31.415Z,14.12
2022-08-31T03:54:59.454Z,14.05
2022-08-31T03:57:27.644Z,14.02
2022-08-31T03:59:55.593Z,14.00
2022-08-31T04:02:24.125Z,13.93
2022-08-31T04:04:52.435Z,13.84
2022-08-31T04:07:21.072Z,13.86
2022-08-31T04:09:51.251Z,13.80
2022-08-31T04:12:20.253Z,13.73
2022-08-31T04:14:48.089Z,13.75
2022-08-31T04:17:16.134Z,13.75
2022-08-31T04:19:44.083Z,13.73
2022-08-31T04:22:11.879Z,13.73
2022-08-31T04:24:39.951Z,13.71
2022-08-31T04:27:09.146Z,13.73
2022-08-31T04:29:37.035Z,13.73
2022-08-31T04:32:05.286Z,13.72
2022-08-31T04:34:33.134Z,13.73
2022-08-31T04:37:01.026Z,13.76
2022-08-31T04:39:32.325Z,13.73
2022-08-31T04:42:00.866Z,13.74
2022-08-31T04:44:30.159Z,13.74
2022-08-31T04:46:58.067Z,13.77
2022-08-31T04:49:26.109Z,13.77
2022-08-31T04:51:54.491Z,13.82
2022-08-31T04:54:22.515Z,13.80
2022-08-31T04:56:50.335Z,13.81
2022-08-31T04:59:19.186Z,13.87
2022-08-31T05:01:48.539Z,13.91
2022-08-31T05:04:17.499Z,13.93
2022-08-31T05:06:47.513Z,13.91
2022-08-31T05:09:17.607Z,13.91
2022-08-31T05:11:46.227Z,13.95
2022-08-31T05:14:14.761Z,13.97
2022-08-31T05:16:42.982Z,13.98
2022-08-31T05:19:12.448Z,14.01
2022-08-31T05:21:42.082Z,14.01
2022-08-31T05:24:11.809Z,14.07
2022-08-31T05:26:44.272Z,14.12
2022-08-31T05:29:15.335Z,14.18
2022-08-31T05:31:46.266Z,14.21
2022-08-31T05:34:18.914Z,14.25
2022-08-31T05:36:50.488Z,14.22
2022-08-31T05:39:18.410Z,14.24
2022-08-31T05:41:47.980Z,14.33
2022-08-31T05:44:16.761Z,14.38
2022-08-31T05:46:52.231Z,14.46
2022-08-31T05:49:28.130Z,14.54
2022-08-31T05:51:57.172Z,14.59
2022-08-31T05:54:25.043Z,14.70
2022-08-31T05:56:53.301Z,14.77
2022-08-31T05:59:21.626Z,14.89
2022-08-31T06:01:49.529Z,15.05
2022-08-31T06:04:17.548Z,15.11
2022-08-31T06:06:46.967Z,15.21
2022-08-31T06:09:14.819Z,15.24
2022-08-31T06:11:42.785Z,15.37
2022-08-31T06:14:12.216Z,15.43
2022-08-31T06:16:41.008Z,15.53
2022-08-31T06:19:09.109Z,15.60
2022-08-31T06:21:49.769Z,15.74
2022-08-31T06:24:20.328Z,15.80
2022-08-31T06:26:58.272Z,15.88
2022-08-31T06:29:27.109Z,16.00
2022-08-31T06:31:55.662Z,16.07
2022-08-31T06:34:24.648Z,16.18
2022-08-31T06:36:52.566Z,16.31
2022-08-31T06:39:21.922Z,16.37
2022-08-31T06:41:52.794Z,16.52
2022-08-31T06:44:22.333Z,16.57
2022-08-31T06:46:50.339Z,16.73
2022-08-31T06:49:19.629Z,16.81
2022-08-31T06:51:47.660Z,16.83
2022-08-31T06:54:29.067Z,16.98
2022-08-31T06:57:00.174Z,17.06
2022-08-31T06:59:29.734Z,17.14
2022-08-31T07:01:59.363Z,17.22
2022-08-31T07:04:28.692Z,17.31
2022-08-31T07:06:56.620Z,17.39
2022-08-31T07:09:25.114Z,17.54
2022-08-31T07:11:53.931Z,17.68
2022-08-31T07:14:26.149Z,18.82
2022-08-31T07:16:56.750Z,20.75
2022-08-31T07:19:26.472Z,22.86
2022-08-31T07:21:56.387Z,24.58
2022-08-31T07:24:27.830Z,25.55
2022-08-31T07:26:58.217Z,26.58
2022-08-31T07:29:30.336Z,28.19
2022-08-31T07:31:59.388Z,28.92
2022-08-31T07:34:29.505Z,29.36
2022-08-31T07:37:17.559Z,29.59
2022-08-31T07:40:07.604Z,29.80
2022-08-31T07:42:39.132Z,30.36
2022-08-31T07:45:13.421Z,30.42
2022-08-31T07:47:45.411Z,31.20
2022-08-31T07:50:14.662Z,30.61
2022-08-31T07:52:48.681Z,31.47
2022-08-31T07:55:18.259Z,32.26
2022-08-31T07:57:47.020Z,32.86
2022-08-31T08:00:20.757Z,32.88
2022-08-31T08:02:52.842Z,31.56
2022-08-31T08:05:26.790Z,31.13
2022-08-31T08:08:00.242Z,30.76
2022-08-31T08:10:30.153Z,31.86
2022-08-31T08:13:04.799Z,31.99
2022-08-31T08:15:36.264Z,32.37
2022-08-31T08:18:05.482Z,32.66
2022-08-31T08:20:35.392Z,32.49
2022-08-31T08:23:13.715Z,31.42
2022-08-31T08:25:43.275Z,31.11
2022-08-31T08:28:38.244Z,32.56
2022-08-31T08:31:08.049Z,32.84
2022-08-31T08:33:36.940Z,32.76
2022-08-31T08:36:08.360Z,32.83
2022-08-31T08:38:39.462Z,32.74
2022-08-31T08:41:12.092Z,32.83
2022-08-31T08:43:43.879Z,32.95
2022-08-31T08:46:33.869Z,32.79
2022-08-31T08:49:14.296Z,32.01
2022-08-31T08:51:42.673Z,31.90
2022-08-31T08:54:14.583Z,31.57
2022-08-31T08:56:49.144Z,32.44
2022-08-31T08:59:20.486Z,32.74
2022-08-31T09:02:00.392Z,32.07
2022-08-31T09:04:49.442Z,32.38
2022-08-31T09:07:36.095Z,32.87
2022-08-31T09:10:11.955Z,32.52
2022-08-31T09:12:58.094Z,33.24
2022-08-31T09:15:37.587Z,33.07
2022-08-31T09:18:17.227Z,32.79
2022-08-31T09:21:00.254Z,33.13
2022-08-31T09:23:30.039Z,32.70
2022-08-31T09:25:58.892Z,32.69
2022-08-31T09:28:39.030Z,31.22
2022-08-31T09:31:07.143Z,29.50
2022-08-31T09:33:51.206Z,29.66
2022-08-31T09:36:22.489Z,29.91
2022-08-31T09:38:51.056Z,29.71
2022-08-31T09:41:31.422Z,28.60
2022-08-31T09:44:19.176Z,26.92
2022-08-31T09:46:48.860Z,26.68
2022-08-31T09:49:23.791Z,26.83
2022-08-31T09:51:52.258Z,26.58
2022-08-31T09:54:46.566Z,26.42
2022-08-31T09:57:15.096Z,26.43
2022-08-31T09:59:45.577Z,26.81
2022-08-31T10:02:30.178Z,26.53
2022-08-31T10:05:01.546Z,26.24
2022-08-31T10:07:38.838Z,26.31
2022-08-31T10:10:28.019Z,26.60
2022-08-31T10:13:03.741Z,26.80
2022-08-31T10:15:39.456Z,27.01
2022-08-31T10:18:14.132Z,26.66
2022-08-31T10:20:48.937Z,26.77
2022-08-31T10:23:22.986Z,26.80
2022-08-31T10:25:57.620Z,26.79
2022-08-31T10:28:36.591Z,26.74
2022-08-31T10:31:08.041Z,27.16
2022-08-31T10:33:59.271Z,27.25
2022-08-31T10:36:33.862Z,27.03
2022-08-31T10:39:02.308Z,26.85
2022-08-31T10:41:34.537Z,26.55
2022-08-31T10:44:07.941Z,26.76
2022-08-31T10:46:36.266Z,26.83
2022-08-31T10:49:06.163Z,26.58
2022-08-31T10:51:46.330Z,26.33
2022-08-31T10:54:28.397Z,26.09
2022-08-31T10:57:06.749Z,25.80
2022-08-31T10:59:45.944Z,25.45
2022-08-31T11:02:53.169Z,24.89
2022-08-31T11:05:33.344Z,24.50
2022-08-31T11:08:15.864Z,24.39
2022-08-31T11:10:49.612Z,24.45
2022-08-31T11:13:31.374Z,24.38
2022-08-31T11:16:21.928Z,24.29
2022-08-31T11:19:09.251Z,24.09
2022-08-31T11:22:03.662Z,24.45
2022-08-31T11:25:03.409Z,24.69
2022-08-31T11:27:37.000Z,24.73
2022-08-31T11:30:11.130Z,24.91
2022-08-31T11:32:45.848Z,25.05
2022-08-31T11:35:15.758Z,25.15
2022-08-31T11:37:56.064Z,25.37
2022-08-31T11:41:12.186Z,25.12
2022-08-31T11:43:46.178Z,25.18
2022-08-31T11:46:48.146Z,24.84
2022-08-31T11:49:38.611Z,24.64
2022-08-31T11:52:12.371Z,24.56
2022-08-31T11:55:11.935Z,24.46
2022-08-31T11:58:21.023Z,24.41
2022-08-31T12:00:58.672Z,24.26
2022-08-31T12:03:40.491Z,24.28
2022-08-31T12:06:11.373Z,24.32
2022-08-31T12:08:52.659Z,24.36
2022-08-31T12:11:34.151Z,24.45
2022-08-31T12:14:13.197Z,24.62
2022-08-31T12:16:57.183Z,24.86
2022-08-31T12:20:04.867Z,25.03
2022-08-31T12:23:30.845Z,25.25
2022-08-31T12:26:13.572Z,25.19
2022-08-31T12:28:58.971Z,25.52
2022-08-31T12:31:27.385Z,25.34
2022-08-31T12:34:01.457Z,25.14
2022-08-31T12:36:31.660Z,24.95
2022-08-31T12:39:09.051Z,24.77
2022-08-31T12:41:40.801Z,24.51
2022-08-31T12:44:14.012Z,24.53
2022-08-31T12:46:54.014Z,24.45
2022-08-31T12:50:00.466Z,24.28
2022-08-31T12:52:45.140Z,24.40
2022-08-31T12:55:24.913Z,24.16
2022-08-31T12:58:04.844Z,23.95
2022-08-31T13:00:37.384Z,23.76
2022-08-31T13:03:16.624Z,23.89
2022-08-31T13:06:01.651Z,23.84
2022-08-31T13:08:37.298Z,24.02
2022-08-31T13:11:22.935Z,24.13
2022-08-31T13:13:51.580Z,24.24
2022-08-31T13:16:19.887Z,24.22
2022-08-31T13:18:48.130Z,24.42
2022-08-31T13:21:22.128Z,24.38
2022-08-31T13:23:51.631Z,24.47
2022-08-31T13:26:23.260Z,24.61
2022-08-31T13:28:53.940Z,24.65
2022-08-31T13:31:25.089Z,24.55
2022-08-31T13:33:57.108Z,24.33
2022-08-31T13:36:33.021Z,24.24
2022-08-31T13:39:06.901Z,24.09
2022-08-31T13:41:39.847Z,24.27
2022-08-31T13:44:10.804Z,24.45
2022-08-31T13:46:44.441Z,24.82
2022-08-31T13:49:32.356Z,25.02
2022-08-31T13:52:01.868Z,24.95
2022-08-31T13:54:33.385Z,24.80
2022-08-31T13:57:20.924Z,24.49
2022-08-31T13:59:49.988Z,24.55
2022-08-31T14:02:36.861Z,24.77
2022-08-31T14:05:08.634Z,24.80
2022-08-31T14:07:58.096Z,24.91
2022-08-31T14:10:29.471Z,25.04
2022-08-31T14:12:59.751Z,25.09
2022-08-31T14:15:41.168Z,25.19
2022-08-31T14:18:24.438Z,25.31
2022-08-31T14:21:22.828Z,25.45
2022-08-31T14:23:53.883Z,25.43
2022-08-31T14:26:26.559Z,25.39
2022-08-31T14:28:56.905Z,25.37
2022-08-31T14:31:28.137Z,25.27
2022-08-31T14:34:22.494Z,24.96
2022-08-31T14:36:55.868Z,24.88
2022-08-31T14:39:28.016Z,24.94
2022-08-31T14:41:59.606Z,24.86
2022-08-31T14:44:31.491Z,24.81
2022-08-31T14:47:00.026Z,24.72
2022-08-31T14:49:31.566Z,24.75
2022-08-31T14:52:04.811Z,24.81
2022-08-31T14:54:37.210Z,24.89
2022-08-31T14:57:12.470Z,25.08
2022-08-31T14:59:43.470Z,25.22
2022-08-31T15:02:13.413Z,25.38
2022-08-31T15:04:45.590Z,25.39
2022-08-31T15:07:15.098Z,25.23
2022-08-31T15:09:43.821Z,25.08
2022-08-31T15:12:15.006Z,25.10
2022-08-31T15:14:44.686Z,24.94
2022-08-31T15:17:19.594Z,24.83
2022-08-31T15:19:50.616Z,24.85
2022-08-31T15:22:19.229Z,24.69
2022-08-31T15:24:47.337Z,24.67
2022-08-31T15:27:17.241Z,24.57
2022-08-31T15:29:48.718Z,24.56
2022-08-31T15:32:18.735Z,24.61
2022-08-31T15:34:53.518Z,24.50
2022-08-31T15:37:22.737Z,24.38
2022-08-31T15:39:51.462Z,24.48
2022-08-31T15:42:21.595Z,24.45
2022-08-31T15:44:56.143Z,24.50
2022-08-31T15:47:43.996Z,24.42
2022-08-31T15:50:12.307Z,24.49
2022-08-31T15:52:43.893Z,24.48
2022-08-31T15:55:21.837Z,24.47
2022-08-31T15:57:54.425Z,24.58
2022-08-31T16:00:23.939Z,24.49
2022-08-31T16:02:57.374Z,24.37
2022-08-31T16:05:28.367Z,24.26
2022-08-31T16:07:57.245Z,24.18
2022-08-31T16:10:27.752Z,24.02
2022-08-31T16:12:57.029Z,23.92
2022-08-31T16:15:25.539Z,23.76
2022-08-31T16:17:57.818Z,23.72
2022-08-31T16:20:27.494Z,23.49
2022-08-31T16:22:56.120Z,23.47
2022-08-31T16:25:25.523Z,23.45
2022-08-31T16:27:59.863Z,23.34
2022-08-31T16:30:29.063Z,23.36
2022-08-31T16:32:57.048Z,23.26
2022-08-31T16:35:24.959Z,23.33
2022-08-31T16:37:52.949Z,23.34
2022-08-31T16:40:25.898Z,23.32
2022-08-31T16:42:54.111Z,23.11
2022-08-31T16:45:23.742Z,23.12
2022-08-31T16:48:11.892Z,23.14
2022-08-31T16:50:44.314Z,23.04
2022-08-31T16:53:16.424Z,23.01
2022-08-31T16:55:47.496Z,22.97
2022-08-31T16:58:25.063Z,23.00
2022-08-31T17:01:13.125Z,22.92
2022-08-31T17:03:42.923Z,22.89
2022-08-31T17:06:10.896Z,22.85
2022-08-31T17:08:41.340Z,22.68
2022-08-31T17:11:23.729Z,22.70
2022-08-31T17:13:58.072Z,22.70
2022-08-31T17:16:30.893Z,22.68
2022-08-31T17:19:00.176Z,22.69
2022-08-31T17:21:31.765Z,22.57
2022-08-31T17:24:05.807Z,22.51
2022-08-31T17:26:40.111Z,22.51
2022-08-31T17:29:08.459Z,22.54
2022-08-31T17:31:42.394Z,22.52
2022-08-31T17:34:11.263Z,22.46
2022-08-31T17:36:40.932Z,22.45
2022-08-31T17:39:11.387Z,22.41
2022-08-31T17:41:41.167Z,22.37
2022-08-31T17:44:11.177Z,22.28
2022-08-31T17:46:40.463Z,22.19
2022-08-31T17:49:08.627Z,22.14
2022-08-31T17:51:37.481Z,22.04
2022-08-31T17:54:11.146Z,21.98
2022-08-31T17:56:47.687Z,21.74
2022-08-31T17:59:18.689Z,21.71
2022-08-31T18:01:50.376Z,21.63
2022-08-31T18:04:19.586Z,21.54
2022-08-31T18:06:51.704Z,21.46
2022-08-31T18:09:21.832Z,21.36
2022-08-31T18:11:50.124Z,21.28
2022-08-31T18:14:20.278Z,21.26
2022-08-31T18:16:51.552Z,21.18
2022-08-31T18:19:27.505Z,21.08
2022-08-31T18:21:57.020Z,21.08
2022-08-31T18:24:25.284Z,20.99
2022-08-31T18:26:53.936Z,20.83
2022-08-31T18:29:24.867Z,20.69
2022-08-31T18:31:59.808Z,20.66
2022-08-31T18:34:34.220Z,20.57
2022-08-31T18:37:03.625Z,20.47
2022-08-31T18:39:52.769Z,20.49
2022-08-31T18:42:38.382Z,20.52
2022-08-31T18:45:22.085Z,20.47
2022-08-31T18:50:44.159Z,20.40
2022-08-31T18:53:15.593Z,20.34
2022-08-31T18:55:55.320Z,20.34
2022-08-31T18:58:23.280Z,20.32
2022-08-31T19:00:57.578Z,20.24
2022-08-31T19:03:27.935Z,20.17
2022-08-31T19:05:56.748Z,20.17
2022-08-31T19:08:25.088Z,20.05
2022-08-31T19:10:54.399Z,20.02
2022-08-31T19:13:22.317Z,19.94
2022-08-31T19:15:50.231Z,19.93
2022-08-31T19:18:18.208Z,19.89
2022-08-31T19:20:47.436Z,19.72
2022-08-31T19:23:19.870Z,19.74
2022-08-31T19:25:48.704Z,19.72
2022-08-31T19:28:17.010Z,19.73
2022-08-31T19:30:47.664Z,19.71
2022-08-31T19:33:16.326Z,19.71
2022-08-31T19:35:44.311Z,19.57
2022-08-31T19:38:14.326Z,19.53
2022-08-31T19:40:42.683Z,19.56
2022-08-31T19:46:15.967Z,19.44
2022-08-31T19:48:45.124Z,19.39
2022-08-31T19:51:15.318Z,19.37
2022-08-31T19:53:45.976Z,19.32
2022-08-31T19:56:17.338Z,19.31
2022-08-31T19:58:48.429Z,19.26
2022-08-31T20:01:18.285Z,19.28
2022-08-31T20:03:47.945Z,19.23
2022-08-31T20:06:19.344Z,19.10
2022-08-31T20:08:50.760Z,19.05
2022-08-31T20:11:22.008Z,19.08
2022-08-31T20:13:50.248Z,19.05
2022-08-31T20:16:19.215Z,19.03
2022-08-31T20:18:48.855Z,18.95
2022-08-31T20:21:20.161Z,18.94
2022-08-31T20:23:51.099Z,18.88
2022-08-31T20:26:23.312Z,18.84
2022-08-31T20:28:59.236Z,18.75
2022-08-31T20:31:27.961Z,18.75
2022-08-31T20:33:57.265Z,18.77
2022-08-31T20:36:27.882Z,18.68
2022-08-31T20:39:01.184Z,18.62
2022-08-31T20:41:32.428Z,18.57
2022-08-31T20:44:10.514Z,18.47
2022-08-31T20:47:00.005Z,18.49
2022-08-31T20:49:29.452Z,18.50
2022-08-31T20:51:59.248Z,18.49
2022-08-31T20:54:33.411Z,18.42
2022-08-31T20:57:03.526Z,18.38
2022-08-31T20:59:31.508Z,18.34
2022-08-31T21:02:03.564Z,18.37
2022-08-31T21:04:33.606Z,18.34
2022-08-31T21:07:02.397Z,18.34
2022-08-31T21:09:32.140Z,18.28
2022-08-31T21:12:01.245Z,18.24
2022-08-31T21:14:30.836Z,18.08
2022-08-31T21:16:59.347Z,18.08
2022-08-31T21:19:27.227Z,18.06
2022-08-31T21:22:01.013Z,18.09
2022-08-31T21:24:28.875Z,18.15
2022-08-31T21:26:59.458Z,18.11
2022-08-31T21:29:29.418Z,18.08
2022-08-31T21:32:03.428Z,18.06
2022-08-31T21:34:32.347Z,17.97
2022-08-31T21:37:00.169Z,17.95
2022-08-31T21:39:28.191Z,17.92
2022-08-31T21:41:56.665Z,17.95
2022-08-31T21:44:26.029Z,17.89
2022-08-31T21:46:53.958Z,17.88
2022-08-31T21:49:22.219Z,17.84
2022-08-31T21:51:53.056Z,17.74
2022-08-31T21:54:23.247Z,17.80
2022-08-31T21:56:53.468Z,17.82
2022-08-31T21:59:23.634Z,17.71
2022-08-31T22:01:55.600Z,17.69
2022-08-31T22:04:23.886Z,17.57
2022-08-31T22:06:52.138Z,17.59
2022-08-31T22:09:22.406Z,17.54
2022-08-31T22:11:54.072Z,17.52
2022-08-31T22:14:26.183Z,17.50
2022-08-31T22:16:57.369Z,17.44
2022-08-31T22:19:28.520Z,17.40
2022-08-31T22:21:59.177Z,17.32
2022-08-31T22:24:30.354Z,17.29
2022-08-31T22:27:01.453Z,17.31
2022-08-31T22:29:32.306Z,17.26
2022-08-31T22:32:04.001Z,17.28
2022-08-31T22:34:31.972Z,17.25
2022-08-31T22:36:59.932Z,17.12
2022-08-31T22:39:30.393Z,17.09
2022-08-31T22:42:00.070Z,17.01
2022-08-31T22:44:31.238Z,17.08
2022-08-31T22:46:59.348Z,17.06
2022-08-31T22:49:28.762Z,16.99
2022-08-31T22:51:57.868Z,16.97
2022-08-31T22:54:27.166Z,16.96
2022-08-31T22:56:55.568Z,16.89
2022-08-31T22:59:27.681Z,16.78
2022-08-31T23:02:03.660Z,16.84
2022-08-31T23:04:37.775Z,16.90
2022-08-31T23:07:07.588Z,16.90
2022-08-31T23:09:35.671Z,16.74
2022-08-31T23:12:05.692Z,16.72
2022-08-31T23:14:34.044Z,16.68
2022-08-31T23:17:04.100Z,16.68
2022-08-31T23:19:37.219Z,16.67
2022-08-31T23:22:09.442Z,16.68
2022-08-31T23:24:40.832Z,16.73
2022-08-31T23:27:10.724Z,16.70
2022-08-31T23:29:42.643Z,16.68
2022-08-31T23:32:12.127Z,16.64
2022-08-31T23:34:42.076Z,16.60
2022-08-31T23:37:11.052Z,16.50
2022-08-31T23:39:43.594Z,16.53
2022-08-31T23:42:12.378Z,16.57
2022-08-31T23:44:43.689Z,16.55
2022-08-31T23:47:13.793Z,16.50
2022-08-31T23:49:43.899Z,16.35
2022-08-31T23:52:13.042Z,16.39
2022-08-31T23:54:41.372Z,16.39
2022-08-31T23:57:17.597Z,16.39
